Time;durP1;ratioP1;P1;durP2;ratioP2;P2;SDS_P1;SDS_P2;PMS_P1;PMS_P2;Temp;Humidity;BMP_temperature;BMP_pressure;BME280_temperature;BME280_humidity;BME280_pressure;Samples;Min_cycle;Max_cycle;Signal;HPM_P1;HPM_P2
2023/12/10 00:00:58;;;;;;;42.70;6.63;;;7.80;99.90;;;;;;5094880;28;20332;-72
2023/12/10 00:03:24;;;;;;;31.20;5.77;;;7.80;99.90;;;;;;5094808;28;20393;-72
2023/12/10 00:05:50;;;;;;;36.90;6.60;;;7.80;99.90;;;;;;5095424;28;20369;-72
2023/12/10 00:08:16;;;;;;;39.77;6.43;;;7.80;99.90;;;;;;5095385;28;20086;-72
2023/12/10 00:10:42;;;;;;;29.60;6.50;;;7.80;99.90;;;;;;5095238;28;20108;-72
2023/12/10 00:13:09;;;;;;;29.60;5.37;;;7.80;99.90;;;;;;5095299;28;20051;-72
2023/12/10 00:15:37;;;;;;;36.30;6.87;;;7.80;99.90;;;;;;5094209;28;20185;-71
2023/12/10 00:18:03;;;;;;;42.43;8.20;;;7.80;99.90;;;;;;5095146;28;20293;-72
2023/12/10 00:20:29;;;;;;;40.93;6.63;;;7.80;99.90;;;;;;5095360;28;20762;-72
2023/12/10 00:22:55;;;;;;;30.73;6.13;;;7.70;99.90;;;;;;5095431;28;20383;-72
2023/12/10 00:25:20;;;;;;;39.67;8.33;;;7.70;99.90;;;;;;5095075;28;20476;-72
2023/12/10 00:27:46;;;;;;;28.77;6.07;;;7.80;99.90;;;;;;5095299;28;20285;-72
2023/12/10 00:30:13;;;;;;;31.03;5.80;;;7.80;99.90;;;;;;5095035;28;20055;-72
2023/12/10 00:32:39;;;;;;;28.60;5.60;;;7.80;99.90;;;;;;5095128;28;20122;-72
2023/12/10 00:35:06;;;;;;;31.57;6.30;;;7.80;99.90;;;;;;5094913;28;20371;-72
2023/12/10 00:37:32;;;;;;;23.43;5.33;;;7.80;99.90;;;;;;5095070;28;20293;-72
2023/12/10 00:39:59;;;;;;;29.70;5.80;;;7.80;99.90;;;;;;5095057;28;20278;-71
2023/12/10 00:42:25;;;;;;;28.73;5.40;;;7.80;99.90;;;;;;5094589;28;20106;-71
2023/12/10 00:44:50;;;;;;;23.90;4.67;;;7.80;99.90;;;;;;5094867;28;20298;-72
2023/12/10 00:47:16;;;;;;;28.27;4.77;;;7.80;99.90;;;;;;5093204;28;20044;-72
2023/12/10 00:49:42;;;;;;;26.57;5.03;;;7.80;99.90;;;;;;5094799;28;20040;-71
2023/12/10 00:52:08;;;;;;;30.17;5.37;;;7.80;99.90;;;;;;5094500;28;20058;-72
2023/12/10 00:54:33;;;;;;;35.03;5.63;;;7.70;99.90;;;;;;5094780;28;20101;-71
2023/12/10 00:57:00;;;;;;;32.77;5.27;;;7.70;99.90;;;;;;5093579;28;20044;-72
2023/12/10 00:59:26;;;;;;;31.27;6.13;;;7.80;99.90;;;;;;5094421;28;20056;-72
2023/12/10 01:01:52;;;;;;;34.00;5.63;;;7.80;99.90;;;;;;5094667;28;20286;-71
2023/12/10 01:04:18;;;;;;;38.13;5.70;;;7.80;99.90;;;;;;5094278;28;20040;-71
2023/12/10 01:06:44;;;;;;;41.43;6.47;;;7.80;99.90;;;;;;5094413;28;20834;-71
2023/12/10 01:09:09;;;;;;;41.33;6.60;;;7.70;99.90;;;;;;5094250;28;20044;-72
2023/12/10 01:11:35;;;;;;;41.67;6.50;;;7.70;99.90;;;;;;5094406;28;20473;-71
2023/12/10 01:14:03;;;;;;;42.70;6.27;;;7.70;99.90;;;;;;5094315;28;20059;-71
2023/12/10 01:16:29;;;;;;;41.23;7.60;;;7.70;99.90;;;;;;5094072;28;20056;-71
2023/12/10 01:18:55;;;;;;;38.57;6.23;;;7.70;99.90;;;;;;5093040;28;20669;-71
2023/12/10 01:21:21;;;;;;;39.23;7.43;;;7.70;99.90;;;;;;5094010;28;20619;-71
2023/12/10 01:23:49;;;;;;;40.03;6.40;;;7.70;99.90;;;;;;5094134;28;20384;-71
2023/12/10 01:26:15;;;;;;;40.93;7.13;;;7.70;99.90;;;;;;5076149;28;20052;-71
2023/12/10 01:28:41;;;;;;;40.57;7.17;;;7.70;99.90;;;;;;5094080;28;20297;-71
2023/12/10 01:31:06;;;;;;;40.97;6.30;;;7.70;99.90;;;;;;5094047;28;20090;-71
2023/12/10 01:33:33;;;;;;;44.20;6.70;;;7.60;99.90;;;;;;5093817;28;20051;-71
2023/12/10 01:35:59;;;;;;;41.23;6.70;;;7.60;99.90;;;;;;5093963;28;20543;-71
2023/12/10 01:38:24;;;;;;;38.10;6.97;;;7.70;99.90;;;;;;5093733;28;20369;-71
2023/12/10 01:40:50;;;;;;;37.20;6.50;;;7.60;99.90;;;;;;5093954;28;20048;-71
2023/12/10 01:43:19;;;;;;;41.67;6.90;;;7.70;99.90;;;;;;5093207;28;20059;-71
2023/12/10 01:45:52;;;;;;;38.13;6.77;;;7.70;99.90;;;;;;5093825;28;20048;-71
2023/12/10 01:48:21;;;;;;;45.00;7.03;;;7.70;99.90;;;;;;5092107;28;20290;-71
2023/12/10 01:50:48;;;;;;;40.83;6.03;;;7.70;99.90;;;;;;5092809;28;20766;-70
2023/12/10 01:53:14;;;;;;;34.17;5.73;;;7.70;99.90;;;;;;5092701;28;20663;-71
2023/12/10 01:55:41;;;;;;;41.90;5.97;;;7.60;99.90;;;;;;5091576;28;20650;-71
2023/12/10 01:58:08;;;;;;;44.40;6.00;;;7.60;99.90;;;;;;5091937;28;20281;-70
2023/12/10 02:00:34;;;;;;;41.93;6.50;;;7.60;99.90;;;;;;5092546;28;20372;-71
2023/12/10 02:03:03;;;;;;;38.50;5.73;;;7.60;99.90;;;;;;5093261;28;20298;-70
2023/12/10 02:05:29;;;;;;;39.57;5.90;;;7.70;99.90;;;;;;5093300;28;20055;-70
2023/12/10 02:07:55;;;;;;;44.27;5.80;;;7.70;99.90;;;;;;5093462;28;20307;-70
2023/12/10 02:10:21;;;;;;;46.50;7.73;;;7.60;99.90;;;;;;5093297;28;20048;-71
2023/12/10 02:12:48;;;;;;;42.17;6.27;;;7.60;99.90;;;;;;5093544;28;20051;-71
2023/12/10 02:15:18;;;;;;;40.57;6.10;;;7.70;99.90;;;;;;5092301;28;20040;-71
2023/12/10 02:17:48;;;;;;;42.87;6.10;;;7.70;99.90;;;;;;5093392;28;20839;-71
2023/12/10 02:20:17;;;;;;;38.97;6.57;;;7.70;99.90;;;;;;5093484;28;20278;-71
2023/12/10 02:22:51;;;;;;;33.40;5.77;;;7.60;99.90;;;;;;5093293;28;20610;-71
2023/12/10 02:25:23;;;;;;;37.97;6.13;;;7.70;99.90;;;;;;5093269;28;20278;-71
2023/12/10 02:27:49;;;;;;;35.40;6.50;;;7.70;99.90;;;;;;5092161;28;20282;-71
2023/12/10 02:30:15;;;;;;;39.97;6.57;;;7.70;99.90;;;;;;5093314;28;20277;-70
2023/12/10 02:32:41;;;;;;;32.03;5.40;;;7.70;99.90;;;;;;5093131;28;20286;-71
2023/12/10 02:35:07;;;;;;;28.70;5.43;;;7.70;99.90;;;;;;5092984;28;20048;-70
2023/12/10 02:37:33;;;;;;;38.73;5.83;;;7.70;99.90;;;;;;5093051;28;20044;-70
2023/12/10 02:39:59;;;;;;;42.63;5.90;;;7.60;99.90;;;;;;5093175;28;20344;-70
2023/12/10 02:42:24;;;;;;;38.07;6.00;;;7.60;99.90;;;;;;5091614;28;20483;-70
2023/12/10 02:44:50;;;;;;;36.13;6.93;;;7.60;99.90;;;;;;5093324;28;20055;-70
2023/12/10 02:47:16;;;;;;;34.37;6.17;;;7.60;99.90;;;;;;5093113;28;20044;-70
2023/12/10 02:49:41;;;;;;;31.87;5.30;;;7.70;99.90;;;;;;5092778;28;20136;-70
2023/12/10 02:52:07;;;;;;;35.97;5.63;;;7.70;99.90;;;;;;5093087;28;20048;-70
2023/12/10 02:54:33;;;;;;;36.63;5.70;;;7.70;99.90;;;;;;5092846;28;20093;-70
2023/12/10 02:56:59;;;;;;;45.47;6.30;;;7.60;99.90;;;;;;5093025;28;20668;-70
2023/12/10 02:59:24;;;;;;;38.17;6.20;;;7.60;99.90;;;;;;5092894;28;20043;-70
2023/12/10 03:01:50;;;;;;;35.37;5.30;;;7.60;99.90;;;;;;5093142;28;20044;-70
2023/12/10 03:04:16;;;;;;;39.73;5.40;;;7.70;99.90;;;;;;5092558;28;20066;-70
2023/12/10 03:06:41;;;;;;;36.80;5.23;;;7.60;99.90;;;;;;5092749;28;20048;-70
2023/12/10 03:09:08;;;;;;;29.17;5.20;;;7.60;99.90;;;;;;5094821;28;20122;-70
2023/12/10 03:11:34;;;;;;;41.00;6.10;;;7.60;99.90;;;;;;5096585;28;20445;-70
2023/12/10 03:13:59;;;;;;;39.87;5.60;;;7.60;99.90;;;;;;5096370;28;20270;-70
2023/12/10 03:16:25;;;;;;;29.50;4.17;;;7.60;99.90;;;;;;5096426;28;20048;-70
2023/12/10 03:18:51;;;;;;;36.13;4.97;;;7.60;99.90;;;;;;5096600;28;20051;-70
2023/12/10 03:21:17;;;;;;;29.93;4.50;;;7.60;99.90;;;;;;5096591;28;20040;-70
2023/12/10 03:23:42;;;;;;;40.00;5.73;;;7.70;99.90;;;;;;5096231;28;20129;-70
2023/12/10 03:26:08;;;;;;;29.90;4.50;;;7.70;99.90;;;;;;5096445;28;20101;-70
2023/12/10 03:28:34;;;;;;;23.20;3.67;;;7.70;99.90;;;;;;5096376;28;20044;-70
2023/12/10 03:31:00;;;;;;;26.73;3.97;;;7.70;99.90;;;;;;5096311;28;20469;-70
2023/12/10 03:33:26;;;;;;;30.07;4.03;;;7.70;99.90;;;;;;5096048;28;20048;-70
2023/12/10 03:35:51;;;;;;;28.10;3.80;;;7.70;99.90;;;;;;5095297;28;20292;-70
2023/12/10 03:38:17;;;;;;;28.97;4.30;;;7.70;99.90;;;;;;5096149;28;20602;-70
2023/12/10 03:40:43;;;;;;;23.47;3.73;;;7.80;99.90;;;;;;5095929;28;20503;-70
2023/12/10 03:43:08;;;;;;;34.47;5.43;;;7.80;99.90;;;;;;5095936;28;20139;-70
2023/12/10 03:45:34;;;;;;;35.90;4.63;;;7.90;99.90;;;;;;5095902;28;20052;-70
2023/12/10 03:48:00;;;;;;;38.77;4.50;;;7.90;99.90;;;;;;5096060;28;20047;-70
2023/12/10 03:50:25;;;;;;;30.17;4.70;;;7.90;99.90;;;;;;5095941;28;20102;-70
2023/12/10 03:52:51;;;;;;;43.17;5.90;;;7.90;99.90;;;;;;5095844;28;20084;-70
2023/12/10 03:55:17;;;;;;;39.43;5.53;;;8.00;99.90;;;;;;5095909;28;20083;-70
2023/12/10 03:57:42;;;;;;;32.50;5.37;;;8.00;99.90;;;;;;5095594;28;20468;-70
2023/12/10 04:00:09;;;;;;;33.67;5.00;;;7.90;99.90;;;;;;5095778;28;20048;-70
2023/12/10 04:02:35;;;;;;;45.27;6.17;;;8.00;99.90;;;;;;5095585;28;20056;-70
2023/12/10 04:05:01;;;;;;;37.17;5.37;;;8.00;99.90;;;;;;5095589;28;20389;-70
2023/12/10 04:07:27;;;;;;;48.00;5.50;;;8.00;99.90;;;;;;5095602;28;20440;-70
2023/12/10 04:09:52;;;;;;;34.93;6.13;;;8.00;99.90;;;;;;5095040;28;20063;-70
2023/12/10 04:12:18;;;;;;;37.73;5.20;;;8.00;99.90;;;;;;5095658;28;20044;-70
2023/12/10 04:14:49;;;;;;;39.77;5.43;;;8.00;99.90;;;;;;5095273;28;20054;-70
2023/12/10 04:17:15;;;;;;;45.57;6.73;;;8.10;99.90;;;;;;5095552;28;20071;-70
2023/12/10 04:19:41;;;;;;;47.17;6.53;;;8.10;99.90;;;;;;5094755;28;20758;-70
2023/12/10 04:22:07;;;;;;;47.03;6.63;;;8.10;99.90;;;;;;5094874;28;20040;-70
2023/12/10 04:24:33;;;;;;;44.33;6.80;;;8.10;99.90;;;;;;5093810;28;20333;-70
2023/12/10 04:26:58;;;;;;;38.87;6.67;;;8.10;99.90;;;;;;5094076;28;20088;-71
2023/12/10 04:29:24;;;;;;;56.53;6.43;;;8.10;99.90;;;;;;5095341;28;20100;-71
2023/12/10 04:31:50;;;;;;;45.90;6.53;;;8.10;99.90;;;;;;5094981;28;20079;-70
2023/12/10 04:34:16;;;;;;;46.63;6.53;;;8.10;99.90;;;;;;5095090;28;20496;-70
2023/12/10 04:36:41;;;;;;;46.47;6.53;;;8.10;99.90;;;;;;5094932;28;20051;-70
2023/12/10 04:39:08;;;;;;;49.07;5.97;;;8.20;99.90;;;;;;5095240;28;20044;-70
2023/12/10 04:41:34;;;;;;;44.03;7.23;;;8.20;99.90;;;;;;5094795;28;20464;-70
2023/12/10 04:44:00;;;;;;;47.60;6.93;;;8.20;99.90;;;;;;5093083;28;20334;-70
2023/12/10 04:46:26;;;;;;;58.23;7.00;;;8.20;99.90;;;;;;5094873;28;20055;-70
2023/12/10 04:48:52;;;;;;;53.90;6.73;;;8.10;99.90;;;;;;5094637;28;20094;-71
2023/12/10 04:51:18;;;;;;;47.17;7.43;;;8.20;99.90;;;;;;5094811;28;20048;-70
2023/12/10 04:53:43;;;;;;;49.13;7.90;;;8.20;99.90;;;;;;5094564;28;20773;-71
2023/12/10 04:56:10;;;;;;;48.53;7.57;;;8.20;99.90;;;;;;5094715;28;20051;-71
2023/12/10 04:58:35;;;;;;;47.90;7.53;;;8.20;99.90;;;;;;5093476;28;20044;-71
2023/12/10 05:01:02;;;;;;;44.50;6.20;;;8.20;99.90;;;;;;5094584;28;20282;-70
2023/12/10 05:03:28;;;;;;;45.77;6.90;;;8.20;99.90;;;;;;5094447;28;20472;-70
2023/12/10 05:05:54;;;;;;;44.17;6.97;;;8.20;99.90;;;;;;5094291;28;20282;-70
2023/12/10 05:08:19;;;;;;;42.53;7.00;;;8.30;99.90;;;;;;5094444;28;20301;-70
2023/12/10 05:10:45;;;;;;;34.97;6.47;;;8.30;99.90;;;;;;5094350;28;20178;-70
2023/12/10 05:13:11;;;;;;;34.77;5.80;;;8.30;99.90;;;;;;5094377;28;20093;-70
2023/12/10 05:15:36;;;;;;;40.13;6.07;;;8.30;99.90;;;;;;5094127;28;20480;-70
2023/12/10 05:18:02;;;;;;;30.00;5.00;;;8.30;99.90;;;;;;5093272;28;20048;-70
2023/12/10 05:20:29;;;;;;;32.83;4.60;;;8.30;99.90;;;;;;5093129;28;20051;-70
2023/12/10 05:22:54;;;;;;;31.33;5.47;;;8.30;99.90;;;;;;5094044;28;20048;-70
2023/12/10 05:25:20;;;;;;;33.30;4.50;;;8.30;99.90;;;;;;5094270;28;20345;-69
2023/12/10 05:27:46;;;;;;;30.40;4.87;;;8.30;99.90;;;;;;5092959;28;20476;-71
2023/12/10 05:30:12;;;;;;;33.50;5.00;;;8.30;99.90;;;;;;5094263;28;20090;-69
2023/12/10 05:32:37;;;;;;;36.47;4.87;;;8.40;99.90;;;;;;5093896;28;20396;-70
2023/12/10 05:35:04;;;;;;;31.00;4.10;;;8.30;99.90;;;;;;5093940;28;20270;-70
2023/12/10 05:37:30;;;;;;;37.33;5.17;;;8.30;99.90;;;;;;5093917;28;20047;-70
2023/12/10 05:39:56;;;;;;;40.63;5.57;;;8.40;99.90;;;;;;5093712;28;20278;-70
2023/12/10 05:42:22;;;;;;;31.03;5.43;;;8.30;99.90;;;;;;5093817;28;20055;-70
2023/12/10 05:44:48;;;;;;;23.23;4.03;;;8.30;99.90;;;;;;5093581;28;20301;-70
2023/12/10 05:47:14;;;;;;;25.13;3.80;;;8.30;99.90;;;;;;5093654;28;20476;-69
2023/12/10 05:49:39;;;;;;;21.40;3.47;;;8.30;99.90;;;;;;5093730;28;20281;-69
2023/12/10 05:52:05;;;;;;;16.00;2.70;;;8.30;99.90;;;;;;5093634;28;20056;-69
2023/12/10 05:54:31;;;;;;;12.37;2.23;;;8.30;99.90;;;;;;5093592;28;20047;-69
2023/12/10 05:56:57;;;;;;;17.27;2.60;;;8.30;99.90;;;;;;5093432;28;20044;-69
2023/12/10 05:59:22;;;;;;;10.63;2.40;;;8.30;99.90;;;;;;5093620;28;20047;-69
2023/12/10 06:01:48;;;;;;;12.57;2.33;;;8.30;99.90;;;;;;5092128;28;20044;-69
2023/12/10 06:04:14;;;;;;;15.40;2.60;;;8.30;99.90;;;;;;5093446;28;20032;-69
2023/12/10 06:06:40;;;;;;;14.17;2.20;;;8.30;99.90;;;;;;5093507;28;20044;-69
2023/12/10 06:09:05;;;;;;;11.10;1.80;;;8.30;99.90;;;;;;5093301;28;20055;-69
2023/12/10 06:11:31;;;;;;;11.50;2.03;;;8.30;99.90;;;;;;5093470;28;20480;-69
2023/12/10 06:13:57;;;;;;;14.00;2.60;;;8.30;99.90;;;;;;5093256;28;20097;-69
2023/12/10 06:16:22;;;;;;;17.40;2.70;;;8.30;99.90;;;;;;5093443;28;20418;-69
2023/12/10 06:18:48;;;;;;;17.87;2.23;;;8.30;99.90;;;;;;5093301;28;20050;-69
2023/12/10 06:21:14;;;;;;;10.87;1.83;;;8.30;99.90;;;;;;5093338;28;20119;-69
2023/12/10 06:23:39;;;;;;;14.87;2.53;;;8.30;99.90;;;;;;5093305;28;20040;-69
2023/12/10 06:26:05;;;;;;;14.80;2.37;;;8.30;99.90;;;;;;5093147;28;20047;-69
2023/12/10 06:28:31;;;;;;;12.33;2.20;;;8.30;99.90;;;;;;5092933;28;20059;-69
2023/12/10 06:30:58;;;;;;;14.17;2.40;;;8.20;99.90;;;;;;5093104;28;20052;-69
2023/12/10 06:33:23;;;;;;;14.20;1.90;;;8.30;99.90;;;;;;5093581;28;20070;-69
2023/12/10 06:35:50;;;;;;;11.47;2.63;;;8.20;99.90;;;;;;5093103;28;20750;-70
2023/12/10 06:38:15;;;;;;;20.10;2.73;;;8.20;99.90;;;;;;5093247;28;20047;-69
2023/12/10 06:40:41;;;;;;;14.80;2.60;;;8.30;99.90;;;;;;5093174;28;20286;-69
2023/12/10 06:43:07;;;;;;;19.40;3.13;;;8.20;99.90;;;;;;5092890;28;20093;-69
2023/12/10 06:45:33;;;;;;;18.80;2.63;;;8.30;99.90;;;;;;5097140;28;20054;-69
2023/12/10 06:47:59;;;;;;;20.53;2.57;;;8.30;99.90;;;;;;5097051;28;20040;-69
2023/12/10 06:50:26;;;;;;;18.70;3.10;;;8.30;99.90;;;;;;5097078;28;20055;-69
2023/12/10 06:52:52;;;;;;;17.73;2.50;;;8.20;99.90;;;;;;5096861;28;20327;-69
2023/12/10 06:55:17;;;;;;;21.07;3.03;;;8.30;99.90;;;;;;5097028;28;20282;-69
2023/12/10 06:57:43;;;;;;;14.63;2.80;;;8.30;99.90;;;;;;5097169;28;20085;-69
2023/12/10 07:00:10;;;;;;;24.73;3.10;;;8.20;99.90;;;;;;5096749;28;20043;-69
2023/12/10 07:02:35;;;;;;;19.73;3.27;;;8.30;99.90;;;;;;5096184;28;20122;-69
2023/12/10 07:05:01;;;;;;;23.20;3.53;;;8.30;99.90;;;;;;5096299;28;20861;-69
2023/12/10 07:07:27;;;;;;;30.90;3.50;;;8.30;99.90;;;;;;5096813;28;20085;-69
2023/12/10 07:09:53;;;;;;;38.73;4.40;;;8.30;99.90;;;;;;5096613;28;20127;-70
2023/12/10 07:12:19;;;;;;;43.03;5.50;;;8.30;99.90;;;;;;5096730;28;20040;-70
2023/12/10 07:14:44;;;;;;;42.93;6.10;;;8.30;99.90;;;;;;5095605;28;20084;-69
2023/12/10 07:17:10;;;;;;;45.20;6.03;;;8.30;99.90;;;;;;5096418;28;20127;-70
2023/12/10 07:19:36;;;;;;;46.70;5.87;;;8.20;99.90;;;;;;5096620;28;20043;-69
2023/12/10 07:22:02;;;;;;;39.33;5.10;;;8.30;99.90;;;;;;5096232;28;20040;-69
2023/12/10 07:24:27;;;;;;;39.47;4.87;;;8.20;99.90;;;;;;5096488;28;20080;-69
2023/12/10 07:26:53;;;;;;;43.17;5.73;;;8.20;99.90;;;;;;5096263;28;20494;-70
2023/12/10 07:29:19;;;;;;;37.67;5.03;;;8.30;99.90;;;;;;5096147;28;20404;-70
2023/12/10 07:31:44;;;;;;;39.30;5.00;;;8.30;99.90;;;;;;5095084;28;20499;-69
2023/12/10 07:34:10;;;;;;;42.90;6.10;;;8.30;99.90;;;;;;5096085;28;20041;-69
2023/12/10 07:36:36;;;;;;;41.23;5.60;;;8.30;99.90;;;;;;5096166;28;20040;-69
2023/12/10 07:39:02;;;;;;;42.40;5.57;;;8.20;99.90;;;;;;5096028;28;20050;-69
2023/12/10 07:41:28;;;;;;;41.00;4.60;;;8.30;99.90;;;;;;5096422;28;20048;-69
2023/12/10 07:43:54;;;;;;;44.07;6.80;;;8.20;99.90;;;;;;5095893;28;20294;-70
2023/12/10 07:46:20;;;;;;;35.70;5.47;;;8.30;99.90;;;;;;5096078;28;20048;-70
2023/12/10 07:48:45;;;;;;;36.80;4.77;;;8.20;99.90;;;;;;5096208;28;20050;-69
2023/12/10 07:51:11;;;;;;;32.13;4.97;;;8.20;99.90;;;;;;5095793;28;20442;-69
2023/12/10 07:53:37;;;;;;;29.80;4.40;;;8.20;99.90;;;;;;5095982;28;20119;-69
2023/12/10 07:56:03;;;;;;;45.47;4.97;;;8.30;99.90;;;;;;5094395;28;20484;-69
2023/12/10 07:58:28;;;;;;;30.77;4.87;;;8.30;99.90;;;;;;5096066;28;20430;-69
2023/12/10 08:00:54;;;;;;;37.90;4.73;;;8.20;99.90;;;;;;5095854;28;20396;-69
2023/12/10 08:03:20;;;;;;;38.87;5.43;;;8.20;99.90;;;;;;5095534;28;20040;-69
2023/12/10 08:05:46;;;;;;;37.20;5.10;;;8.30;99.90;;;;;;5095748;28;20076;-69
2023/12/10 08:08:12;;;;;;;46.23;6.03;;;8.30;99.90;;;;;;5097135;28;20044;-68
2023/12/10 08:10:37;;;;;;;38.13;4.90;;;8.30;99.90;;;;;;5095723;28;20079;-67
2023/12/10 08:13:03;;;;;;;40.27;5.37;;;8.20;99.90;;;;;;5095532;28;20488;-68
2023/12/10 08:15:29;;;;;;;40.73;5.40;;;8.30;99.90;;;;;;5095550;28;20051;-68
2023/12/10 08:17:54;;;;;;;43.33;5.77;;;8.30;99.90;;;;;;5095467;28;20472;-68
2023/12/10 08:20:20;;;;;;;47.80;6.30;;;8.30;99.90;;;;;;5095214;28;20075;-68
2023/12/10 08:22:48;;;;;;;29.93;5.63;;;8.20;99.90;;;;;;5095396;28;20044;-68
2023/12/10 08:25:13;;;;;;;42.57;5.57;;;8.30;99.90;;;;;;5094777;28;20506;-68
2023/12/10 08:27:39;;;;;;;33.13;5.80;;;8.20;99.90;;;;;;5094071;28;20365;-68
2023/12/10 08:30:06;;;;;;;30.90;4.80;;;8.30;99.90;;;;;;5095008;28;20044;-67
2023/12/10 08:32:31;;;;;;;34.10;4.67;;;8.30;99.90;;;;;;5095195;28;20048;-68
2023/12/10 08:34:57;;;;;;;37.47;4.83;;;8.20;99.90;;;;;;5095133;28;20369;-68
2023/12/10 08:37:23;;;;;;;37.90;5.33;;;8.20;99.90;;;;;;5093690;28;20044;-69
2023/12/10 08:39:49;;;;;;;23.30;4.23;;;8.30;99.90;;;;;;5095033;28;20044;-68
2023/12/10 08:42:15;;;;;;;25.03;3.87;;;8.30;99.90;;;;;;5094782;28;20128;-68
2023/12/10 08:44:42;;;;;;;31.63;5.17;;;8.30;99.90;;;;;;5094254;28;20816;-68
2023/12/10 08:47:07;;;;;;;28.57;4.27;;;8.30;99.90;;;;;;5094324;28;20282;-68
2023/12/10 08:49:33;;;;;;;23.43;4.67;;;8.30;99.90;;;;;;5094852;28;20044;-68
2023/12/10 08:51:59;;;;;;;31.13;5.30;;;8.30;99.90;;;;;;5094727;28;20048;-68
2023/12/10 08:54:24;;;;;;;28.27;4.63;;;8.30;99.90;;;;;;5094452;28;20036;-69
2023/12/10 08:56:50;;;;;;;38.77;5.40;;;8.30;99.90;;;;;;5094708;28;20040;-68
2023/12/10 08:59:16;;;;;;;29.27;4.23;;;8.30;99.90;;;;;;5094505;28;20054;-68
2023/12/10 09:01:43;;;;;;;31.03;4.60;;;8.30;99.90;;;;;;5094874;28;20118;-68
2023/12/10 09:04:09;;;;;;;27.63;4.67;;;8.30;99.90;;;;;;5094275;28;20097;-69
2023/12/10 09:06:34;;;;;;;27.93;4.90;;;8.30;99.90;;;;;;5094063;28;20279;-68
2023/12/10 09:09:00;;;;;;;30.77;4.80;;;8.30;99.90;;;;;;5094334;28;20116;-68
2023/12/10 09:11:26;;;;;;;31.90;5.07;;;8.30;99.90;;;;;;5094200;28;20141;-68
2023/12/10 09:13:52;;;;;;;33.93;6.77;;;8.20;99.90;;;;;;5094549;28;20059;-68
2023/12/10 09:16:19;;;;;;;27.57;6.23;;;8.30;99.90;;;;;;5094111;28;20040;-69
2023/12/10 09:18:45;;;;;;;42.17;6.80;;;8.20;99.90;;;;;;5094476;28;20438;-68
2023/12/10 09:21:10;;;;;;;35.77;5.00;;;8.30;99.90;;;;;;5094077;28;20270;-69
2023/12/10 09:23:36;;;;;;;39.10;5.23;;;8.20;99.90;;;;;;5092826;28;20120;-68
2023/12/10 09:26:02;;;;;;;39.67;5.63;;;8.30;99.90;;;;;;5094194;28;20047;-68
2023/12/10 09:28:28;;;;;;;27.53;4.50;;;8.20;99.90;;;;;;5093893;28;20048;-68
2023/12/10 09:30:54;;;;;;;21.23;4.23;;;8.30;99.90;;;;;;5094216;28;20040;-68
2023/12/10 09:33:20;;;;;;;27.77;4.97;;;8.20;99.90;;;;;;5093796;28;20040;-68
2023/12/10 09:35:45;;;;;;;28.90;4.30;;;8.30;99.90;;;;;;5094015;28;20070;-69
2023/12/10 09:38:12;;;;;;;30.50;4.80;;;8.30;99.90;;;;;;5093755;28;20051;-69
2023/12/10 09:40:38;;;;;;;23.73;4.40;;;8.30;99.90;;;;;;5093585;28;20043;-69
2023/12/10 09:43:04;;;;;;;26.00;4.13;;;8.30;99.90;;;;;;5093542;28;20289;-69
2023/12/10 09:45:31;;;;;;;22.33;4.00;;;8.30;99.90;;;;;;5093340;28;20362;-69
2023/12/10 09:47:58;;;;;;;29.43;4.70;;;8.30;99.90;;;;;;5093499;28;20704;-68
2023/12/10 09:50:24;;;;;;;33.00;5.53;;;8.30;99.90;;;;;;5093601;28;20305;-69
2023/12/10 09:52:50;;;;;;;49.00;6.07;;;8.40;99.90;;;;;;5093718;28;20289;-69
2023/12/10 09:55:17;;;;;;;42.73;5.80;;;8.30;99.90;;;;;;5093414;28;20323;-70
2023/12/10 09:57:43;;;;;;;62.37;8.47;;;8.30;99.90;;;;;;5093596;28;20048;-69
2023/12/10 10:00:09;;;;;;;51.20;6.70;;;8.30;99.90;;;;;;5092640;28;20415;-69
2023/12/10 10:02:36;;;;;;;47.97;6.20;;;8.30;99.90;;;;;;5093267;28;20480;-69
2023/12/10 10:05:03;;;;;;;40.27;6.53;;;8.30;99.90;;;;;;5093469;28;20297;-69
2023/12/10 10:07:30;;;;;;;49.10;7.27;;;8.30;99.90;;;;;;5093223;28;20293;-69
2023/12/10 10:09:56;;;;;;;42.83;6.83;;;8.40;99.90;;;;;;5093189;28;20289;-69
2023/12/10 10:12:21;;;;;;;47.57;7.20;;;8.30;99.90;;;;;;5093309;28;20294;-69
2023/12/10 10:14:57;;;;;;;48.33;7.63;;;8.30;99.90;;;;;;5093499;28;20040;-69
2023/12/10 10:17:35;;;;;;;45.17;7.97;;;8.30;99.90;;;;;;5093052;28;20047;-69
2023/12/10 10:20:04;;;;;;;59.47;8.80;;;8.40;99.90;;;;;;5092929;28;20270;-69
2023/12/10 10:22:31;;;;;;;41.57;7.40;;;8.30;99.90;;;;;;5093170;28;20769;-69
2023/12/10 10:24:57;;;;;;;47.93;6.87;;;8.40;99.90;;;;;;5092868;28;20845;-70
2023/12/10 10:27:23;;;;;;;48.93;7.33;;;8.40;99.90;;;;;;5093030;28;20274;-70
2023/12/10 10:29:53;;;;;;;44.37;7.57;;;8.40;99.90;;;;;;5093568;28;20274;-73
2023/12/10 10:32:20;;;;;;;53.93;8.77;;;8.40;99.90;;;;;;5093050;28;20318;-71
2023/12/10 10:34:47;;;;;;;40.30;7.50;;;8.50;99.90;;;;;;5093245;28;20274;-69
2023/12/10 10:37:15;;;;;;;47.30;7.67;;;8.40;99.90;;;;;;5093140;28;20336;-69
2023/12/10 10:39:42;;;;;;;46.90;7.70;;;8.40;99.90;;;;;;5093157;28;20339;-70
2023/12/10 10:42:09;;;;;;;47.70;8.23;;;8.50;99.90;;;;;;5093142;28;20277;-70
2023/12/10 10:44:41;;;;;;;48.57;7.60;;;8.50;99.90;;;;;;5092661;28;20314;-72
2023/12/10 10:47:08;;;;;;;54.17;6.90;;;8.50;99.90;;;;;;5093177;28;20336;-71
2023/12/10 10:49:39;;;;;;;55.63;8.37;;;8.50;99.90;;;;;;5092905;28;20407;-71
2023/12/10 10:52:09;;;;;;;45.47;7.20;;;8.50;99.90;;;;;;5093277;28;20611;-70
2023/12/10 10:54:35;;;;;;;45.93;9.70;;;8.50;99.90;;;;;;5092522;28;20766;-69
2023/12/10 10:57:04;;;;;;;41.97;6.97;;;8.50;99.90;;;;;;5093186;28;20339;-69
2023/12/10 10:59:31;;;;;;;57.17;12.03;;;8.50;99.90;;;;;;5092800;28;20318;-71
2023/12/10 11:02:02;;;;;;;47.03;9.23;;;8.60;99.90;;;;;;5092885;28;20278;-69
2023/12/10 11:04:41;;;;;;;52.13;8.67;;;8.50;99.90;;;;;;5092740;28;20305;-70
2023/12/10 11:07:07;;;;;;;44.20;8.00;;;8.60;99.90;;;;;;5091585;28;20284;-70
2023/12/10 11:10:08;;;;;;;54.47;8.87;;;8.60;99.90;;;;;;5092689;28;20274;-70
2023/12/10 11:12:43;;;;;;;47.90;7.63;;;8.50;99.90;;;;;;5049939;28;20295;-70
2023/12/10 11:15:14;;;;;;;47.65;7.63;;;8.50;99.90;;;;;;5086323;28;20286;-70
2023/12/10 11:17:49;;;;;;;53.10;7.93;;;8.60;99.90;;;;;;5092467;28;20048;-71
2023/12/10 11:20:34;;;;;;;49.28;7.88;;;8.60;99.90;;;;;;5092722;28;20360;-72
2023/12/10 11:23:11;;;;;;;58.92;8.02;;;8.60;99.90;;;;;;5092601;28;20048;-69
2023/12/10 11:25:38;;;;;;;49.93;8.30;;;8.60;99.90;;;;;;5092508;28;20056;-70
2023/12/10 11:28:12;;;;;;;49.13;7.57;;;8.60;99.90;;;;;;5092600;28;20615;-69
2023/12/10 11:30:39;;;;;;;49.42;6.43;;;8.70;99.90;;;;;;5094893;28;20274;-69
2023/12/10 11:33:05;;;;;;;44.40;6.53;;;8.60;99.90;;;;;;5096637;28;20051;-70
2023/12/10 11:35:32;;;;;;;42.60;6.53;;;8.70;99.90;;;;;;5096038;28;20369;-70
2023/12/10 11:37:58;;;;;;;41.70;6.90;;;8.70;99.90;;;;;;5095263;28;20293;-72
2023/12/10 11:40:24;;;;;;;46.10;9.10;;;8.70;99.90;;;;;;5095879;28;20286;-74
2023/12/10 11:42:49;;;;;;;46.07;7.17;;;8.70;99.90;;;;;;5096075;28;20083;-69
2023/12/10 11:45:15;;;;;;;56.30;8.33;;;8.70;99.90;;;;;;5096229;28;20091;-69
2023/12/10 11:47:44;;;;;;;44.13;7.63;;;8.60;99.90;;;;;;5095734;28;20054;-69
2023/12/10 11:50:11;;;;;;;44.57;7.20;;;8.60;99.90;;;;;;5096099;28;20040;-69
2023/12/10 11:52:38;;;;;;;52.90;7.17;;;8.60;99.90;;;;;;5095745;28;20365;-69
2023/12/10 11:55:07;;;;;;;51.03;7.70;;;8.60;99.90;;;;;;5095922;28;20341;-69
2023/12/10 11:57:33;;;;;;;42.97;7.97;;;8.60;99.90;;;;;;5095482;28;20307;-69
2023/12/10 12:00:04;;;;;;;40.07;6.37;;;8.50;99.90;;;;;;5095798;28;20757;-69
2023/12/10 12:02:30;;;;;;;49.90;7.43;;;8.50;99.90;;;;;;5095758;28;20270;-70
2023/12/10 12:04:56;;;;;;;39.50;7.53;;;8.50;99.90;;;;;;5095987;28;20800;-68
2023/12/10 12:07:23;;;;;;;40.27;7.10;;;8.50;99.90;;;;;;5095678;28;20048;-69
2023/12/10 12:09:49;;;;;;;40.87;6.30;;;8.60;99.90;;;;;;5095413;28;20055;-72
2023/12/10 12:12:15;;;;;;;40.37;6.97;;;8.60;99.90;;;;;;5094354;28;20282;-71
2023/12/10 12:14:43;;;;;;;39.97;5.90;;;8.60;99.90;;;;;;5095297;28;20313;-70
2023/12/10 12:17:08;;;;;;;42.23;7.23;;;8.60;99.90;;;;;;5095535;28;20055;-69
2023/12/10 12:19:34;;;;;;;31.90;6.03;;;8.60;99.90;;;;;;5095216;28;20286;-71
2023/12/10 12:22:00;;;;;;;33.53;5.13;;;8.60;99.90;;;;;;5095306;28;20128;-71
2023/12/10 12:24:26;;;;;;;37.10;7.77;;;8.60;99.90;;;;;;5095366;28;20052;-71
2023/12/10 12:26:52;;;;;;;35.40;5.40;;;8.50;99.90;;;;;;5094237;28;20044;-71
2023/12/10 12:29:18;;;;;;;42.40;7.10;;;8.50;99.90;;;;;;5095249;28;20301;-71
2023/12/10 12:31:43;;;;;;;39.93;6.30;;;8.50;99.90;;;;;;5095009;28;20373;-70
2023/12/10 12:34:09;;;;;;;38.13;6.17;;;8.50;99.90;;;;;;5095078;28;20387;-70
2023/12/10 12:36:35;;;;;;;42.20;7.00;;;8.40;99.90;;;;;;5094966;28;20052;-71
2023/12/10 12:39:03;;;;;;;32.47;5.50;;;8.40;99.90;;;;;;5095052;28;20285;-71
2023/12/10 12:41:29;;;;;;;37.07;5.80;;;8.40;99.90;;;;;;5094124;28;20381;-72
2023/12/10 12:43:56;;;;;;;35.90;5.17;;;8.40;99.90;;;;;;5094767;28;20813;-71